createdAt,value
2022-08-05T00:00:51.636Z,100188.75
2022-08-05T00:03:54.167Z,100195.09
2022-08-05T00:06:59.774Z,100190.78
2022-08-05T00:10:02.375Z,100188.97
2022-08-05T00:13:05.207Z,100182.84
2022-08-05T00:16:09.509Z,100190.09
2022-08-05T00:19:13.567Z,100187.53
2022-08-05T00:22:17.772Z,100189.41
2022-08-05T00:25:20.679Z,100193.81
2022-08-05T00:28:29.755Z,100188.47
2022-08-05T00:31:53.885Z,100192.06
2022-08-05T00:35:06.330Z,100185.81
2022-08-05T00:38:09.824Z,100186.59
2022-08-05T00:41:12.334Z,100181.19
2022-08-05T00:44:14.755Z,100186.63
2022-08-05T00:47:17.278Z,100175.94
2022-08-05T00:50:20.926Z,100176.06
2022-08-05T00:54:01.375Z,100182.34
2022-08-05T00:56:51.355Z,100179.78
2022-08-05T00:59:54.435Z,100179.09
2022-08-05T01:02:57.646Z,100175.75
2022-08-05T01:06:05.435Z,100175.00
2022-08-05T01:09:08.107Z,100176.84
2022-08-05T01:12:18.516Z,100170.62
2022-08-05T01:15:36.119Z,100169.84
2022-08-05T01:18:42.662Z,100170.88
2022-08-05T01:22:10.834Z,100179.59
2022-08-05T01:25:41.124Z,100169.84
2022-08-05T01:28:45.403Z,100167.09
2022-08-05T01:31:49.779Z,100169.03
2022-08-05T01:34:58.686Z,100167.94
2022-08-05T01:38:03.115Z,100174.12
2022-08-05T01:41:07.534Z,100174.31
2022-08-05T01:44:11.411Z,100180.69
2022-08-05T01:47:16.824Z,100177.28
2022-08-05T01:50:29.422Z,100185.19
2022-08-05T01:53:56.960Z,100174.66
2022-08-05T01:58:12.358Z,100176.47
2022-08-05T02:00:21.203Z,100176.47
2022-08-05T02:03:36.253Z,100175.72
2022-08-05T02:06:39.489Z,100185.53
2022-08-05T02:09:42.160Z,100179.34
2022-08-05T02:13:24.129Z,100182.06
2022-08-05T02:16:34.734Z,100177.47
2022-08-05T02:19:47.089Z,100183.03
2022-08-05T02:23:08.859Z,100178.66
2022-08-05T02:26:13.448Z,100177.78
2022-08-05T02:29:21.688Z,100183.28
2022-08-05T02:32:31.607Z,100177.13
2022-08-05T02:35:37.739Z,100174.53
2022-08-05T02:38:42.954Z,100174.53
2022-08-05T02:42:00.519Z,100171.75
2022-08-05T02:45:04.991Z,100176.41
2022-08-05T02:48:12.402Z,100167.53
2022-08-05T02:51:15.990Z,100175.66
2022-08-05T02:54:35.667Z,100167.72
2022-08-05T02:58:10.465Z,100171.31
2022-08-05T03:01:03.389Z,100173.28
2022-08-05T03:04:14.161Z,100166.28
2022-08-05T03:07:40.578Z,100167.00
2022-08-05T03:10:44.786Z,100157.47
2022-08-05T03:14:08.131Z,100161.09
2022-08-05T03:17:10.816Z,100159.37
2022-08-05T03:20:13.839Z,100155.87
2022-08-05T03:23:16.700Z,100152.34
2022-08-05T03:26:31.700Z,100158.44
2022-08-05T03:29:45.424Z,100149.75
2022-08-05T03:32:58.556Z,100156.09
2022-08-05T03:36:01.374Z,100153.50
2022-08-05T03:39:13.183Z,100153.38
2022-08-05T03:42:22.906Z,100154.31
2022-08-05T03:45:29.734Z,100153.44
2022-08-05T03:48:52.370Z,100156.97
2022-08-05T03:52:48.332Z,100159.03
2022-08-05T03:56:06.228Z,100156.97
2022-08-05T03:58:59.886Z,100158.13
2022-08-05T04:02:02.630Z,100155.69
2022-08-05T04:05:09.619Z,100148.56
2022-08-05T04:08:29.674Z,100155.34
2022-08-05T04:11:50.939Z,100157.97
2022-08-05T04:14:57.768Z,100165.06
2022-08-05T04:18:09.451Z,100166.03
2022-08-05T04:21:12.515Z,100169.66
2022-08-05T04:24:35.082Z,100164.28
2022-08-05T04:27:43.489Z,100162.37
2022-08-05T04:30:47.119Z,100159.63
2022-08-05T04:34:19.009Z,100158.63
2022-08-05T04:37:13.200Z,100157.84
2022-08-05T04:40:19.303Z,100161.47
2022-08-05T04:43:22.352Z,100163.94
2022-08-05T04:46:27.851Z,100162.00
2022-08-05T04:49:39.053Z,100164.44
2022-08-05T04:52:53.595Z,100162.53
2022-08-05T04:56:32.931Z,100160.62
2022-08-05T04:59:22.009Z,100161.72
2022-08-05T05:02:36.541Z,100167.91
2022-08-05T05:06:40.281Z,100167.53
2022-08-05T05:09:07.067Z,100169.97
2022-08-05T05:12:09.530Z,100167.34
2022-08-05T05:15:17.495Z,100167.34
2022-08-05T05:18:36.583Z,100161.84
2022-08-05T05:21:39.195Z,100158.50
2022-08-05T05:24:56.884Z,100164.84
2022-08-05T05:28:01.957Z,100160.16
2022-08-05T05:31:05.788Z,100157.53
2022-08-05T05:34:11.523Z,100160.84
2022-08-05T05:37:15.115Z,100156.41
2022-08-05T05:40:19.861Z,100147.31
2022-08-05T05:43:57.084Z,100150.81
2022-08-05T05:46:45.621Z,100157.44
2022-08-05T05:49:56.536Z,100151.81
2022-08-05T05:52:59.730Z,100156.97
2022-08-05T05:56:03.205Z,100154.88
2022-08-05T05:59:07.607Z,100151.44
2022-08-05T06:02:10.590Z,100148.53
2022-08-05T06:05:16.687Z,100150.56
2022-08-05T06:08:31.575Z,100143.28
2022-08-05T06:11:34.951Z,100141.22
2022-08-05T06:14:44.719Z,100148.63
2022-08-05T06:17:52.890Z,100154.09
2022-08-05T06:20:56.145Z,100136.50
2022-08-05T06:23:59.473Z,100146.91
2022-08-05T06:27:04.334Z,100149.13
2022-08-05T06:30:19.834Z,100142.25
2022-08-05T06:33:33.383Z,100143.34
2022-08-05T06:36:57.381Z,100146.97
2022-08-05T06:40:01.023Z,100150.56
2022-08-05T06:43:05.700Z,100152.47
2022-08-05T06:46:30.045Z,100145.28
2022-08-05T06:49:59.909Z,100141.00
2022-08-05T06:52:58.443Z,100144.41
2022-08-05T06:56:03.477Z,100139.44
2022-08-05T06:59:09.632Z,100150.38
2022-08-05T07:02:14.948Z,100152.97
2022-08-05T07:05:18.953Z,100146.53
2022-08-05T07:08:22.744Z,100135.66
2022-08-05T07:11:31.136Z,100145.09
2022-08-05T07:14:53.983Z,100134.75
2022-08-05T07:18:08.917Z,100149.50
2022-08-05T07:21:12.228Z,100137.31
2022-08-05T07:24:15.105Z,100142.59
2022-08-05T07:27:17.620Z,100134.84
2022-08-05T07:30:27.256Z,100137.38
2022-08-05T07:33:35.197Z,100134.16
2022-08-05T07:36:40.295Z,100125.69
2022-08-05T07:40:25.925Z,100129.31
2022-08-05T07:43:14.772Z,100132.00
2022-08-05T07:46:26.081Z,100130.97
2022-08-05T07:49:28.927Z,100124.03
2022-08-05T07:52:31.621Z,100124.44
2022-08-05T07:56:05.886Z,100128.16
2022-08-05T07:58:59.741Z,100117.22
2022-08-05T08:02:03.107Z,100115.66
2022-08-05T08:05:09.057Z,100129.88
2022-08-05T08:08:15.188Z,100120.88
2022-08-05T08:11:18.166Z,100125.09
2022-08-05T08:14:30.326Z,100115.97
2022-08-05T08:17:32.913Z,100122.41
2022-08-05T08:20:59.819Z,100118.41
2022-08-05T08:24:01.569Z,100118.28
2022-08-05T08:27:08.179Z,100111.09
2022-08-05T08:30:30.027Z,100117.25
2022-08-05T08:33:37.987Z,100120.16
2022-08-05T08:36:49.133Z,100115.34
2022-08-05T08:39:55.142Z,100106.59
2022-08-05T08:42:58.419Z,100119.03
2022-08-05T08:46:22.063Z,100112.69
2022-08-05T08:50:06.103Z,100111.84
2022-08-05T08:52:53.306Z,100115.75
2022-08-05T08:56:05.297Z,100112.22
2022-08-05T08:59:14.688Z,100112.22
2022-08-05T09:02:19.546Z,100116.03
2022-08-05T09:05:38.664Z,100101.50
2022-08-05T09:08:45.268Z,100103.09
2022-08-05T09:11:51.980Z,100103.47
2022-08-05T09:15:05.981Z,100098.81
2022-08-05T09:18:13.400Z,100088.34
2022-08-05T09:22:13.496Z,100093.06
2022-08-05T09:24:38.725Z,100083.94
2022-08-05T09:28:04.536Z,100082.34
2022-08-05T09:31:43.269Z,100072.81
2022-08-05T09:34:51.780Z,100076.06
2022-08-05T09:38:12.655Z,100079.53
2022-08-05T09:41:17.666Z,100061.88
2022-08-05T09:44:41.307Z,100061.97
2022-08-05T09:47:55.264Z,100068.66
2022-08-05T09:51:02.334Z,100059.84
2022-08-05T09:54:08.553Z,100049.94
2022-08-05T09:57:28.135Z,100054.25
2022-08-05T10:00:36.413Z,100053.47
2022-08-05T10:03:58.804Z,100050.41
2022-08-05T10:07:14.102Z,100043.66
2022-08-05T10:10:28.242Z,100036.66
2022-08-05T10:13:45.535Z,100038.72
2022-08-05T10:16:52.948Z,100037.50
2022-08-05T10:20:03.920Z,100027.13
2022-08-05T10:23:59.019Z,100027.53
2022-08-05T10:27:00.620Z,100027.25
2022-08-05T10:30:41.581Z,100023.59
2022-08-05T10:33:29.750Z,100019.00
2022-08-05T10:36:37.591Z,100015.66
2022-08-05T10:40:03.683Z,100006.75
2022-08-05T10:43:30.911Z,100005.34
2022-08-05T10:46:45.508Z,100001.19
2022-08-05T10:50:33.238Z,100010.72
2022-08-05T10:53:38.398Z,100008.78
2022-08-05T10:56:45.353Z,99997.53
2022-08-05T11:00:04.121Z,99994.63
2022-08-05T11:03:25.532Z,99999.94
2022-08-05T11:06:30.770Z,99989.25
2022-08-05T11:09:45.160Z,99988.13
2022-08-05T11:12:50.890Z,99986.06
2022-08-05T11:16:18.090Z,99974.19
2022-08-05T11:20:10.449Z,99972.25
2022-08-05T11:22:53.876Z,99978.25
2022-08-05T11:26:06.253Z,99978.72
2022-08-05T11:29:31.552Z,99976.88
2022-08-05T11:32:35.124Z,99966.62
2022-08-05T11:36:07.771Z,99968.06
2022-08-05T11:39:12.156Z,99962.84
2022-08-05T11:42:18.477Z,99967.06
2022-08-05T11:46:14.745Z,99958.25
2022-08-05T11:48:44.559Z,99961.09
2022-08-05T11:51:51.720Z,99961.09
2022-08-05T11:54:56.512Z,99962.13
2022-08-05T11:58:10.796Z,99961.97
2022-08-05T12:01:19.264Z,99969.75
2022-08-05T12:04:22.511Z,99972.84
2022-08-05T12:08:08.073Z,99958.75
2022-08-05T12:10:58.810Z,99964.94
2022-08-05T12:14:06.071Z,99972.72
2022-08-05T12:18:02.879Z,99962.50
2022-08-05T12:20:38.912Z,99960.03
2022-08-05T12:23:51.882Z,99957.63
2022-08-05T12:26:54.364Z,99955.16
2022-08-05T12:30:07.827Z,99945.44
2022-08-05T12:33:27.573Z,99950.06
2022-08-05T12:36:35.155Z,99942.06
2022-08-05T12:39:38.878Z,99937.53
2022-08-05T12:42:41.542Z,99942.97
2022-08-05T12:46:12.542Z,99936.94
2022-08-05T12:49:15.918Z,99940.97
2022-08-05T12:52:25.248Z,99932.75
2022-08-05T12:55:32.524Z,99938.88
2022-08-05T12:58:48.635Z,99922.66
2022-08-05T13:02:07.474Z,99924.56
2022-08-05T13:05:14.497Z,99928.06
2022-08-05T13:08:18.209Z,99924.84
2022-08-05T13:11:25.308Z,99914.41
2022-08-05T13:14:47.945Z,99906.03
2022-08-05T13:18:08.286Z,99899.16
2022-08-05T13:21:10.755Z,99899.41
2022-08-05T13:24:15.197Z,99894.53
2022-08-05T13:27:39.603Z,99893.19
2022-08-05T13:30:42.512Z,99878.59
2022-08-05T13:34:21.107Z,99878.72
2022-08-05T13:37:08.090Z,99880.97
2022-08-05T13:40:15.078Z,99876.12
2022-08-05T13:43:21.817Z,99868.50
2022-08-05T13:46:50.714Z,99874.13
2022-08-05T13:49:48.710Z,99871.28
2022-08-05T13:52:51.389Z,99864.06
2022-08-05T13:56:00.251Z,99864.97
2022-08-05T13:59:06.122Z,99856.63
2022-08-05T14:02:26.518Z,99858.81
2022-08-05T14:06:04.829Z,99862.03
2022-08-05T14:08:54.733Z,99851.41
2022-08-05T14:12:04.037Z,99848.84
2022-08-05T14:16:07.546Z,99845.94
2022-08-05T14:18:29.954Z,99851.63
2022-08-05T14:22:10.025Z,99849.72
2022-08-05T14:24:54.968Z,99844.47
2022-08-05T14:27:58.425Z,99836.09
2022-08-05T14:31:01.534Z,99833.63
2022-08-05T14:34:04.212Z,99829.00
2022-08-05T14:37:14.483Z,99833.19
2022-08-05T14:40:17.206Z,99827.63
2022-08-05T14:43:19.750Z,99830.38
2022-08-05T14:46:22.981Z,99825.09
2022-08-05T14:49:56.177Z,99816.59
2022-08-05T14:52:58.762Z,99820.25
2022-08-05T14:56:01.844Z,99820.63
2022-08-05T14:59:04.244Z,99815.94
2022-08-05T15:02:15.753Z,99806.47
2022-08-05T15:05:18.684Z,99809.97
2022-08-05T15:08:58.601Z,99797.56
2022-08-05T15:11:51.844Z,99806.34
2022-08-05T15:14:56.160Z,99795.34
2022-08-05T15:17:58.817Z,99798.22
2022-08-05T15:21:07.400Z,99794.47
2022-08-05T15:24:10.568Z,99798.41
2022-08-05T15:27:13.511Z,99802.16
2022-08-05T15:30:16.648Z,99786.81
2022-08-05T15:34:05.213Z,99783.94
2022-08-05T15:36:41.731Z,99783.03
2022-08-05T15:41:01.900Z,99787.22
2022-08-05T15:43:11.176Z,99775.88
2022-08-05T15:46:19.513Z,99772.87
2022-08-05T15:49:41.953Z,99774.09
2022-08-05T15:52:54.174Z,99771.91
2022-08-05T15:56:02.884Z,99770.41
2022-08-05T15:59:07.565Z,99770.97
2022-08-05T16:02:14.801Z,99769.72
2022-08-05T16:05:22.937Z,99771.91
2022-08-05T16:08:31.322Z,99763.38
2022-08-05T16:11:39.993Z,99766.72
2022-08-05T16:14:45.999Z,99770.25
2022-08-05T16:17:57.448Z,99768.72
2022-08-05T16:21:04.272Z,99768.09
2022-08-05T16:24:07.698Z,99776.22
2022-08-05T16:27:32.325Z,99774.84
2022-08-05T16:30:50.365Z,99780.50
2022-08-05T16:33:53.646Z,99778.59
2022-08-05T16:36:56.361Z,99777.28
2022-08-05T16:40:05.880Z,99775.88
2022-08-05T16:43:09.340Z,99763.59
2022-08-05T16:46:12.829Z,99764.72
2022-08-05T16:49:26.702Z,99768.38
2022-08-05T16:52:33.621Z,99763.88
2022-08-05T16:55:46.363Z,99763.13
2022-08-05T16:58:49.893Z,99758.66
2022-08-05T17:01:53.937Z,99760.94
2022-08-05T17:04:58.434Z,99761.84
2022-08-05T17:08:00.916Z,99763.19
2022-08-05T17:11:03.910Z,99761.78
2022-08-05T17:14:07.157Z,99760.81
2022-08-05T17:17:15.589Z,99758.88
2022-08-05T17:20:18.106Z,99767.84
2022-08-05T17:24:05.053Z,99775.41
2022-08-05T17:26:43.656Z,99774.53
2022-08-05T17:29:48.960Z,99768.12
2022-08-05T17:32:55.301Z,99777.69
2022-08-05T17:36:07.632Z,99777.72
2022-08-05T17:39:23.720Z,99785.59
2022-08-05T17:42:32.161Z,99782.69
2022-08-05T17:45:38.511Z,99777.81
2022-08-05T17:48:43.192Z,99774.50
2022-08-05T17:51:47.570Z,99778.41
2022-08-05T17:54:52.672Z,99779.91
2022-08-05T17:57:57.489Z,99778.69
2022-08-05T18:00:59.940Z,99785.84
2022-08-05T18:04:04.708Z,99780.72
2022-08-05T18:07:12.393Z,99776.66
2022-08-05T18:10:21.115Z,99784.44
2022-08-05T18:13:25.776Z,99782.22
2022-08-05T18:16:28.308Z,99782.13
2022-08-05T18:19:30.675Z,99775.53
2022-08-05T18:22:36.249Z,99773.22
2022-08-05T18:25:49.208Z,99770.25
2022-08-05T18:29:01.424Z,99777.66
2022-08-05T18:32:04.005Z,99781.31
2022-08-05T18:35:06.732Z,99789.69
2022-08-05T18:38:16.464Z,99785.81
2022-08-05T18:41:55.276Z,99788.50
2022-08-05T18:44:49.191Z,99787.09
2022-08-05T18:47:58.275Z,99798.38
2022-08-05T18:52:04.715Z,99797.06
2022-08-05T18:54:45.827Z,99804.84
2022-08-05T18:57:52.555Z,99795.81
2022-08-05T19:00:56.675Z,99804.41
2022-08-05T19:03:59.139Z,99806.84
2022-08-05T19:07:01.886Z,99806.62
2022-08-05T19:10:11.093Z,99807.97
2022-08-05T19:13:15.832Z,99803.81
2022-08-05T19:16:24.928Z,99808.13
2022-08-05T19:19:30.960Z,99805.69
2022-08-05T19:22:33.456Z,99815.12
2022-08-05T19:25:39.214Z,99808.28
2022-08-05T19:28:46.187Z,99808.59
2022-08-05T19:31:51.211Z,99812.75
2022-08-05T19:34:54.555Z,99812.13
2022-08-05T19:38:06.339Z,99811.59
2022-08-05T19:41:10.722Z,99812.81
2022-08-05T19:44:14.102Z,99809.69
2022-08-05T19:47:16.729Z,99816.09
2022-08-05T19:50:20.108Z,99810.16
2022-08-05T19:54:04.087Z,99807.25
2022-08-05T19:56:45.149Z,99813.81
2022-08-05T20:00:01.078Z,99824.72
2022-08-05T20:03:13.563Z,99823.16
2022-08-05T20:06:28.689Z,99824.31
2022-08-05T20:09:53.551Z,99825.44
2022-08-05T20:12:55.255Z,99823.88
2022-08-05T20:15:57.907Z,99832.44
2022-08-05T20:19:00.756Z,99832.59
2022-08-05T20:22:03.614Z,99835.50
2022-08-05T20:25:08.145Z,99833.19
2022-08-05T20:28:13.691Z,99843.44
2022-08-05T20:31:18.090Z,99839.94
2022-08-05T20:34:24.972Z,99849.25
2022-08-05T20:38:06.292Z,99852.81
2022-08-05T20:40:50.442Z,99850.22
2022-08-05T20:43:59.079Z,99853.41
2022-08-05T20:47:07.405Z,99855.09
2022-08-05T20:50:11.374Z,99859.62
2022-08-05T20:53:16.345Z,99848.16
2022-08-05T20:56:42.107Z,99854.69
2022-08-05T21:00:10.531Z,99853.97
2022-08-05T21:03:08.025Z,99861.31
2022-08-05T21:06:27.803Z,99860.56
2022-08-05T21:09:31.551Z,99854.59
2022-08-05T21:12:39.845Z,99857.44
2022-08-05T21:16:01.191Z,99866.84
2022-08-05T21:19:03.866Z,99865.84
2022-08-05T21:22:06.650Z,99861.66
2022-08-05T21:25:12.344Z,99863.50
2022-08-05T21:28:18.618Z,99862.66
2022-08-05T21:31:25.990Z,99865.47
2022-08-05T21:34:43.637Z,99869.38
2022-08-05T21:37:58.365Z,99875.75
2022-08-05T21:41:01.095Z,99872.41
2022-08-05T21:44:06.369Z,99873.31
2022-08-05T21:47:17.329Z,99870.91
2022-08-05T21:50:31.348Z,99876.47
2022-08-05T21:53:34.222Z,99881.16
2022-08-05T21:56:44.695Z,99868.06
2022-08-05T22:00:04.812Z,99883.38
2022-08-05T22:03:15.273Z,99883.66
2022-08-05T22:06:22.335Z,99873.19
2022-08-05T22:09:25.620Z,99878.69
2022-08-05T22:12:50.692Z,99891.28
2022-08-05T22:16:02.691Z,99881.59
2022-08-05T22:19:57.350Z,99891.59
2022-08-05T22:22:55.158Z,99890.72
2022-08-05T22:26:16.515Z,99885.69
2022-08-05T22:29:26.324Z,99881.44
2022-08-05T22:32:29.698Z,99887.84
2022-08-05T22:35:48.923Z,99887.16
2022-08-05T22:38:53.829Z,99891.91
2022-08-05T22:42:11.386Z,99885.75
2022-08-05T22:45:15.638Z,99876.84
2022-08-05T22:48:22.192Z,99875.19
2022-08-05T22:52:05.350Z,99878.09
2022-08-05T22:54:52.251Z,99878.28
2022-08-05T22:57:56.188Z,99879.31
2022-08-05T23:01:00.613Z,99885.81
2022-08-05T23:04:03.682Z,99888.66
2022-08-05T23:07:07.712Z,99881.69
2022-08-05T23:10:10.826Z,99891.56
2022-08-05T23:13:13.049Z,99886.53
2022-08-05T23:16:15.812Z,99886.69
2022-08-05T23:19:38.411Z,99878.87
2022-08-05T23:22:47.655Z,99887.97
2022-08-05T23:25:55.152Z,99887.06
2022-08-05T23:28:58.839Z,99878.19
2022-08-05T23:32:01.052Z,99878.28
2022-08-05T23:35:03.841Z,99878.44
2022-08-05T23:38:06.508Z,99867.91
2022-08-05T23:41:14.909Z,99872.44
2022-08-05T23:44:17.290Z,99867.44
2022-08-05T23:47:22.526Z,99864.87
2022-08-05T23:50:27.452Z,99873.97
2022-08-05T23:53:46.569Z,99873.06
2022-08-05T23:56:49.356Z,99874.94
